createdAt,value
2023-04-02T00:02:16.353Z,9.74
2023-04-02T00:04:42.737Z,9.79
2023-04-02T00:07:09.110Z,9.85
2023-04-02T00:09:35.452Z,9.92
2023-04-02T00:12:01.779Z,9.97
2023-04-02T00:14:28.111Z,9.96
2023-04-02T00:16:54.437Z,9.92
2023-04-02T00:19:20.774Z,9.90
2023-04-02T00:21:47.149Z,9.81
2023-04-02T00:24:13.544Z,9.67
2023-04-02T00:26:39.929Z,9.59
2023-04-02T00:29:06.337Z,9.58
2023-04-02T00:31:32.751Z,9.54
2023-04-02T00:33:59.097Z,9.49
2023-04-02T00:36:25.466Z,9.33
2023-04-02T00:38:51.849Z,9.24
2023-04-02T00:41:18.305Z,9.11
2023-04-02T00:43:44.674Z,9.05
2023-04-02T00:46:11.203Z,8.85
2023-04-02T00:48:37.617Z,8.82
2023-04-02T00:51:03.968Z,8.69
2023-04-02T00:53:30.333Z,8.72
2023-04-02T00:55:56.714Z,8.67
2023-04-02T00:58:23.116Z,8.72
2023-04-02T01:00:49.482Z,8.68
2023-04-02T01:03:16.109Z,8.75
2023-04-02T01:05:42.632Z,8.76
2023-04-02T01:08:09.395Z,8.84
2023-04-02T01:10:35.778Z,8.91
2023-04-02T01:13:02.140Z,8.86
2023-04-02T01:15:28.518Z,8.87
2023-04-02T01:17:54.886Z,8.94
2023-04-02T01:20:21.265Z,9.02
2023-04-02T01:22:47.648Z,9.07
2023-04-02T01:25:14.013Z,9.17
2023-04-02T01:27:40.348Z,9.22
2023-04-02T01:30:06.718Z,9.21
2023-04-02T01:32:33.096Z,9.20
2023-04-02T01:34:59.452Z,9.24
2023-04-02T01:37:25.821Z,9.29
2023-04-02T01:39:52.168Z,9.23
2023-04-02T01:42:18.540Z,9.22
2023-04-02T01:44:44.925Z,9.30
2023-04-02T01:47:11.310Z,9.23
2023-04-02T01:49:37.651Z,9.30
2023-04-02T01:52:03.985Z,9.31
2023-04-02T01:54:30.360Z,9.31
2023-04-02T01:56:56.732Z,9.25
2023-04-02T01:59:23.097Z,9.17
2023-04-02T02:01:49.496Z,9.21
2023-04-02T02:04:15.854Z,9.29
2023-04-02T02:06:42.235Z,9.33
2023-04-02T02:09:08.572Z,9.36
2023-04-02T02:11:34.901Z,9.40
2023-04-02T02:14:01.236Z,9.31
2023-04-02T02:16:27.689Z,9.31
2023-04-02T02:18:54.095Z,9.29
2023-04-02T02:21:20.459Z,9.27
2023-04-02T02:23:46.833Z,9.31
2023-04-02T02:26:13.210Z,9.34
2023-04-02T02:28:39.549Z,9.39
2023-04-02T02:31:05.890Z,9.43
2023-04-02T02:33:32.227Z,9.38
2023-04-02T02:35:58.635Z,9.33
2023-04-02T02:38:25.000Z,9.23
2023-04-02T02:40:51.335Z,9.18
2023-04-02T02:43:17.664Z,9.07
2023-04-02T02:45:44.046Z,9.05
2023-04-02T02:48:10.464Z,9.03
2023-04-02T02:50:36.865Z,8.98
2023-04-02T02:53:03.253Z,9.02
2023-04-02T02:55:29.611Z,9.01
2023-04-02T02:57:56.003Z,9.00
2023-04-02T03:00:22.358Z,8.96
2023-04-02T03:02:48.793Z,8.98
2023-04-02T03:05:15.221Z,8.96
2023-04-02T03:07:41.561Z,8.98
2023-04-02T03:10:07.938Z,9.04
2023-04-02T03:12:34.297Z,9.08
2023-04-02T03:15:00.696Z,9.14
2023-04-02T03:17:27.124Z,9.14
2023-04-02T03:19:53.516Z,9.16
2023-04-02T03:22:19.893Z,9.21
2023-04-02T03:24:46.243Z,9.22
2023-04-02T03:27:12.575Z,9.23
2023-04-02T03:29:38.921Z,9.22
2023-04-02T03:32:05.293Z,9.19
2023-04-02T03:34:31.642Z,9.22
2023-04-02T03:36:57.964Z,9.20
2023-04-02T03:39:24.352Z,9.25
2023-04-02T03:41:50.702Z,9.30
2023-04-02T03:44:17.040Z,9.32
2023-04-02T03:46:43.439Z,9.33
2023-04-02T03:49:09.773Z,9.37
2023-04-02T03:51:36.153Z,9.33
2023-04-02T03:54:02.511Z,9.40
2023-04-02T03:56:28.898Z,9.40
2023-04-02T03:58:55.297Z,9.42
2023-04-02T04:01:21.691Z,9.40
2023-04-02T04:03:48.102Z,9.39
2023-04-02T04:06:14.513Z,9.56
2023-04-02T04:08:40.858Z,9.66
2023-04-02T04:11:07.320Z,9.54
2023-04-02T04:13:33.726Z,9.51
2023-04-02T04:16:00.076Z,9.52
2023-04-02T04:18:26.436Z,9.51
2023-04-02T04:20:52.775Z,9.52
2023-04-02T04:23:19.099Z,9.49
2023-04-02T04:25:45.467Z,9.49
2023-04-02T04:28:11.838Z,9.49
2023-04-02T04:30:38.176Z,9.46
2023-04-02T04:33:04.623Z,9.50
2023-04-02T04:35:31.016Z,9.55
2023-04-02T04:37:57.384Z,9.54
2023-04-02T04:40:23.707Z,9.56
2023-04-02T04:42:50.085Z,9.63
2023-04-02T04:45:16.479Z,9.64
2023-04-02T04:47:42.872Z,9.69
2023-04-02T04:50:09.264Z,9.63
2023-04-02T04:52:35.598Z,9.65
2023-04-02T04:55:01.979Z,9.69
2023-04-02T04:57:28.530Z,9.68
2023-04-02T04:59:55.112Z,9.64
2023-04-02T05:02:21.496Z,9.64
2023-04-02T05:04:47.869Z,9.64
2023-04-02T05:07:14.292Z,9.59
2023-04-02T05:09:40.685Z,9.62
2023-04-02T05:12:07.028Z,9.65
2023-04-02T05:14:33.384Z,9.72
2023-04-02T05:16:59.772Z,9.72
2023-04-02T05:19:26.164Z,9.78
2023-04-02T05:21:52.516Z,9.87
2023-04-02T05:24:18.848Z,9.87
2023-04-02T05:26:45.243Z,9.83
2023-04-02T05:29:11.608Z,9.89
2023-04-02T05:31:38.013Z,9.91
2023-04-02T05:34:04.464Z,9.89
2023-04-02T05:36:30.810Z,9.88
2023-04-02T05:38:57.195Z,9.93
2023-04-02T05:41:23.601Z,9.92
2023-04-02T05:43:49.957Z,9.91
2023-04-02T05:46:16.391Z,9.92
2023-04-02T05:48:42.790Z,9.93
2023-04-02T05:51:09.187Z,9.99
2023-04-02T05:53:35.585Z,9.96
2023-04-02T05:56:01.937Z,9.96
2023-04-02T06:00:57.600Z,9.97
2023-04-02T06:03:24.101Z,10.01
2023-04-02T06:05:50.622Z,10.00
2023-04-02T06:08:16.991Z,9.96
2023-04-02T06:10:43.356Z,9.99
2023-04-02T06:13:09.750Z,10.07
2023-04-02T06:15:36.328Z,10.06
2023-04-02T06:18:02.912Z,10.01
2023-04-02T06:20:29.366Z,10.03
2023-04-02T06:22:55.832Z,10.03
2023-04-02T06:25:22.245Z,10.02
2023-04-02T06:27:48.611Z,10.04
2023-04-02T06:30:14.994Z,10.00
2023-04-02T06:32:41.403Z,10.05
2023-04-02T06:35:07.810Z,10.12
2023-04-02T06:37:34.167Z,10.13
2023-04-02T06:40:00.506Z,10.16
2023-04-02T06:42:26.845Z,10.20
2023-04-02T06:44:53.220Z,10.15
2023-04-02T06:47:19.565Z,10.06
2023-04-02T06:49:45.909Z,10.08
2023-04-02T06:52:12.295Z,10.13
2023-04-02T06:54:38.693Z,10.19
2023-04-02T06:57:05.170Z,10.23
2023-04-02T06:59:31.582Z,10.22
2023-04-02T07:01:57.969Z,10.25
2023-04-02T07:04:24.400Z,10.31
2023-04-02T07:06:50.784Z,10.33
2023-04-02T07:09:17.169Z,10.42
2023-04-02T07:11:43.525Z,10.50
2023-04-02T07:14:09.900Z,10.54
2023-04-02T07:16:36.292Z,10.65
2023-04-02T07:19:02.686Z,10.78
2023-04-02T07:21:29.056Z,10.90
2023-04-02T07:23:55.399Z,10.98
2023-04-02T07:26:21.776Z,11.17
2023-04-02T07:28:48.173Z,11.21
2023-04-02T07:31:14.548Z,11.27
2023-04-02T07:33:42.069Z,11.27
2023-04-02T07:36:08.653Z,11.25
2023-04-02T07:38:35.041Z,11.24
2023-04-02T07:41:01.438Z,11.25
2023-04-02T07:43:27.837Z,11.32
2023-04-02T07:45:54.194Z,11.30
2023-04-02T07:48:20.580Z,11.38
2023-04-02T07:50:46.975Z,11.39
2023-04-02T07:53:13.365Z,11.42
2023-04-02T07:55:39.719Z,11.42
2023-04-02T07:58:06.074Z,11.45
2023-04-02T08:00:32.473Z,11.46
2023-04-02T08:02:58.872Z,11.44
2023-04-02T08:05:25.413Z,11.50
2023-04-02T08:07:51.805Z,11.54
2023-04-02T08:10:18.199Z,11.58
2023-04-02T08:12:44.655Z,11.58
2023-04-02T08:15:11.009Z,11.58
2023-04-02T08:17:37.400Z,11.59
2023-04-02T08:20:03.794Z,11.67
2023-04-02T08:22:30.197Z,11.75
2023-04-02T08:24:56.539Z,11.83
2023-04-02T08:27:22.944Z,11.91
2023-04-02T08:29:49.295Z,11.92
2023-04-02T08:32:15.691Z,12.01
2023-04-02T08:34:42.102Z,12.10
2023-04-02T08:37:08.472Z,12.19
2023-04-02T08:39:34.834Z,12.29
2023-04-02T08:42:01.176Z,12.44
2023-04-02T08:44:27.554Z,12.44
2023-04-02T08:46:54.122Z,12.55
2023-04-02T08:49:20.474Z,12.58
2023-04-02T08:51:46.806Z,12.64
2023-04-02T08:54:13.148Z,12.66
2023-04-02T08:56:39.482Z,12.71
2023-04-02T08:59:05.879Z,12.62
2023-04-02T09:01:32.285Z,12.79
2023-04-02T09:03:58.676Z,12.69
2023-04-02T09:06:25.069Z,12.69
2023-04-02T09:08:51.421Z,12.76
2023-04-02T09:11:17.808Z,12.81
2023-04-02T09:13:44.154Z,12.76
2023-04-02T09:16:10.574Z,12.87
2023-04-02T09:18:37.099Z,12.83
2023-04-02T09:21:03.490Z,12.87
2023-04-02T09:23:29.883Z,12.90
2023-04-02T09:26:04.082Z,12.90
2023-04-02T09:28:31.140Z,12.90
2023-04-02T09:30:57.482Z,12.94
2023-04-02T09:33:23.861Z,12.96
2023-04-02T09:35:50.247Z,12.99
2023-04-02T09:38:16.610Z,13.05
2023-04-02T09:40:42.999Z,13.03
2023-04-02T09:43:09.369Z,12.98
2023-04-02T09:45:35.982Z,12.91
2023-04-02T09:48:02.613Z,13.00
2023-04-02T09:50:29.045Z,13.08
2023-04-02T09:52:55.392Z,13.01
2023-04-02T09:55:21.802Z,12.98
2023-04-02T09:57:48.242Z,12.97
2023-04-02T10:00:29.995Z,12.93
2023-04-02T10:02:58.279Z,13.05
2023-04-02T10:05:39.237Z,12.97
2023-04-02T10:08:07.862Z,12.95
2023-04-02T10:10:34.390Z,12.91
2023-04-02T10:13:00.923Z,12.85
2023-04-02T10:15:27.258Z,12.89
2023-04-02T10:17:53.662Z,12.93
2023-04-02T10:20:20.042Z,12.97
2023-04-02T10:22:46.430Z,13.01
2023-04-02T10:25:12.783Z,13.06
2023-04-02T10:27:39.139Z,13.07
2023-04-02T10:30:05.526Z,13.13
2023-04-02T10:32:31.995Z,13.16
2023-04-02T10:34:58.381Z,13.35
2023-04-02T10:37:24.728Z,13.44
2023-04-02T10:39:51.104Z,13.55
2023-04-02T10:42:17.469Z,13.75
2023-04-02T10:44:43.865Z,13.95
2023-04-02T10:47:10.269Z,13.95
2023-04-02T10:49:36.639Z,13.98
2023-04-02T10:52:03.054Z,14.06
2023-04-02T10:54:29.493Z,14.02
2023-04-02T10:56:55.890Z,14.04
2023-04-02T10:59:22.312Z,13.96
2023-04-02T11:01:48.747Z,13.82
2023-04-02T11:04:15.139Z,13.76
2023-04-02T11:06:41.564Z,13.62
2023-04-02T11:09:07.971Z,13.59
2023-04-02T11:11:34.325Z,13.59
2023-04-02T11:14:00.708Z,13.56
2023-04-02T11:16:27.129Z,13.60
2023-04-02T11:18:53.623Z,13.57
2023-04-02T11:21:20.048Z,13.58
2023-04-02T11:23:46.414Z,13.54
2023-04-02T11:26:12.778Z,13.51
2023-04-02T11:28:39.182Z,13.52
2023-04-02T11:31:05.594Z,13.54
2023-04-02T11:33:38.139Z,13.51
2023-04-02T11:36:05.669Z,13.44
2023-04-02T11:38:32.069Z,13.38
2023-04-02T11:40:58.449Z,13.38
2023-04-02T11:43:24.840Z,13.25
2023-04-02T11:45:53.484Z,13.23
2023-04-02T11:48:20.048Z,13.25
2023-04-02T11:50:46.749Z,13.22
2023-04-02T11:53:13.312Z,13.26
2023-04-02T11:55:39.926Z,13.24
2023-04-02T11:58:06.449Z,13.39
2023-04-02T12:00:32.857Z,13.50
2023-04-02T12:02:59.270Z,13.51
2023-04-02T12:05:25.734Z,13.49
2023-04-02T12:07:52.399Z,13.47
2023-04-02T12:10:19.042Z,13.46
2023-04-02T12:12:45.442Z,13.37
2023-04-02T12:15:11.811Z,13.43
2023-04-02T12:17:38.261Z,13.42
2023-04-02T12:20:05.920Z,13.38
2023-04-02T12:22:32.431Z,13.30
2023-04-02T12:24:58.786Z,13.25
2023-04-02T12:27:25.173Z,13.25
2023-04-02T12:29:51.523Z,13.34
2023-04-02T12:32:17.876Z,13.41
2023-04-02T12:34:44.229Z,13.48
2023-04-02T12:37:10.648Z,13.56
2023-04-02T12:39:37.046Z,13.48
2023-04-02T12:42:03.383Z,13.31
2023-04-02T12:44:29.729Z,13.29
2023-04-02T12:46:56.151Z,13.35
2023-04-02T12:49:22.523Z,13.31
2023-04-02T12:51:48.883Z,13.30
2023-04-02T12:54:15.266Z,13.23
2023-04-02T12:56:41.621Z,13.29
2023-04-02T12:59:08.018Z,13.30
2023-04-02T13:01:34.450Z,13.24
2023-04-02T13:04:00.902Z,13.21
2023-04-02T13:06:27.361Z,13.20
2023-04-02T13:08:53.830Z,13.09
2023-04-02T13:11:20.190Z,13.08
2023-04-02T13:13:46.534Z,13.26
2023-04-02T13:16:12.953Z,13.57
2023-04-02T13:18:39.382Z,13.62
2023-04-02T13:21:05.781Z,13.53
2023-04-02T13:23:32.180Z,13.41
2023-04-02T13:25:58.551Z,13.44
2023-04-02T13:28:24.984Z,13.53
2023-04-02T13:30:51.371Z,13.54
2023-04-02T13:33:17.756Z,13.73
2023-04-02T13:35:44.198Z,13.83
2023-04-02T13:38:10.657Z,13.75
2023-04-02T13:40:37.331Z,13.54
2023-04-02T13:43:03.928Z,13.48
2023-04-02T13:45:30.294Z,13.42
2023-04-02T13:47:56.689Z,13.49
2023-04-02T13:50:23.153Z,13.52
2023-04-02T13:52:49.567Z,13.52
2023-04-02T13:55:15.958Z,13.51
2023-04-02T13:57:42.375Z,13.41
2023-04-02T14:00:08.819Z,13.42
2023-04-02T14:02:35.230Z,13.47
2023-04-02T14:05:01.658Z,13.49
2023-04-02T14:07:28.062Z,13.53
2023-04-02T14:09:54.433Z,13.57
2023-04-02T14:12:20.859Z,13.58
2023-04-02T14:14:47.212Z,13.58
2023-04-02T14:17:13.629Z,13.67
2023-04-02T14:19:39.987Z,13.63
2023-04-02T14:22:06.343Z,13.58
2023-04-02T14:24:32.757Z,13.68
2023-04-02T14:26:59.165Z,13.71
2023-04-02T14:29:27.507Z,13.66
2023-04-02T14:31:55.166Z,13.65
2023-04-02T14:34:21.532Z,13.58
2023-04-02T14:36:47.881Z,13.57
2023-04-02T14:39:14.261Z,13.57
2023-04-02T14:41:40.621Z,13.63
2023-04-02T14:44:07.044Z,13.71
2023-04-02T14:46:34.891Z,13.72
2023-04-02T14:49:03.227Z,13.63
2023-04-02T14:51:29.601Z,13.62
2023-04-02T14:53:55.969Z,13.53
2023-04-02T14:56:22.342Z,13.51
2023-04-02T14:58:48.671Z,13.54
2023-04-02T15:01:15.027Z,13.49
2023-04-02T15:03:41.386Z,13.42
2023-04-02T15:06:07.766Z,13.42
2023-04-02T15:08:34.110Z,13.43
2023-04-02T15:11:03.398Z,13.46
2023-04-02T15:13:30.751Z,13.49
2023-04-02T15:15:57.129Z,13.50
2023-04-02T15:18:23.566Z,13.48
2023-04-02T15:20:49.910Z,13.51
2023-04-02T15:23:16.277Z,13.49
2023-04-02T15:25:42.668Z,13.42
2023-04-02T15:28:09.071Z,13.45
2023-04-02T15:30:35.861Z,13.41
2023-04-02T15:33:02.458Z,13.43
2023-04-02T15:35:28.857Z,13.42
2023-04-02T15:37:55.246Z,13.38
2023-04-02T15:40:21.637Z,13.34
2023-04-02T15:42:48.017Z,13.28
2023-04-02T15:45:14.416Z,13.29
2023-04-02T15:47:40.840Z,13.26
2023-04-02T15:50:07.250Z,13.26
2023-04-02T15:52:33.604Z,13.20
2023-04-02T15:54:59.941Z,13.13
2023-04-02T15:57:26.343Z,13.03
2023-04-02T15:59:52.769Z,13.00
2023-04-02T16:02:19.118Z,13.00
2023-04-02T16:04:45.493Z,12.97
2023-04-02T16:07:11.878Z,12.96
2023-04-02T16:09:38.231Z,13.00
2023-04-02T16:12:04.608Z,13.04
2023-04-02T16:14:30.954Z,13.07
2023-04-02T16:16:57.388Z,13.08
2023-04-02T16:19:24.121Z,13.10
2023-04-02T16:21:50.517Z,13.08
2023-04-02T16:24:16.866Z,13.02
2023-04-02T16:26:43.223Z,13.01
2023-04-02T16:29:09.641Z,12.95
2023-04-02T16:31:36.066Z,12.89
2023-04-02T16:34:02.526Z,12.89
2023-04-02T16:36:28.957Z,12.85
2023-04-02T16:38:55.358Z,12.75
2023-04-02T16:41:21.699Z,12.70
2023-04-02T16:43:48.029Z,12.65
2023-04-02T16:46:14.874Z,12.53
2023-04-02T16:48:42.055Z,12.63
2023-04-02T16:51:08.383Z,12.58
2023-04-02T16:53:34.760Z,12.70
2023-04-02T16:56:01.106Z,12.76
2023-04-02T16:58:27.478Z,12.82
2023-04-02T17:00:53.873Z,12.84
2023-04-02T17:03:20.342Z,12.77
2023-04-02T17:05:46.728Z,12.67
2023-04-02T17:08:13.055Z,12.62
2023-04-02T17:10:39.422Z,12.58
2023-04-02T17:13:05.788Z,12.48
2023-04-02T17:15:32.150Z,12.39
2023-04-02T17:17:58.534Z,12.33
2023-04-02T17:20:24.910Z,12.32
2023-04-02T17:22:51.241Z,12.35
2023-04-02T17:25:17.629Z,12.33
2023-04-02T17:27:43.978Z,12.26
2023-04-02T17:30:10.322Z,12.22
2023-04-02T17:32:36.683Z,12.07
2023-04-02T17:35:03.036Z,12.03
2023-04-02T17:37:29.379Z,11.93
2023-04-02T17:39:55.764Z,11.81
2023-04-02T17:42:22.169Z,11.77
2023-04-02T17:44:48.579Z,11.84
2023-04-02T17:47:14.967Z,11.89
2023-04-02T17:49:41.378Z,11.94
2023-04-02T17:52:07.740Z,12.01
2023-04-02T17:54:34.121Z,12.00
2023-04-02T17:57:00.526Z,11.89
2023-04-02T17:59:26.920Z,11.86
2023-04-02T18:01:53.262Z,11.83
2023-04-02T18:04:19.648Z,11.90
2023-04-02T18:06:45.986Z,12.06
2023-04-02T18:09:12.386Z,12.20
2023-04-02T18:11:38.791Z,12.29
2023-04-02T18:14:05.124Z,12.28
2023-04-02T18:16:31.471Z,12.25
2023-04-02T18:18:57.830Z,12.33
2023-04-02T18:21:24.222Z,12.34
2023-04-02T18:23:50.567Z,12.40
2023-04-02T18:26:16.914Z,12.38
2023-04-02T18:28:43.282Z,12.25
2023-04-02T18:31:09.657Z,12.05
2023-04-02T18:33:36.054Z,11.83
2023-04-02T18:36:02.480Z,11.82
2023-04-02T18:38:28.895Z,11.87
2023-04-02T18:40:55.283Z,11.88
2023-04-02T18:43:21.638Z,11.87
2023-04-02T18:45:47.992Z,12.14
2023-04-02T18:48:14.442Z,11.96
2023-04-02T18:50:40.781Z,11.65
2023-04-02T18:53:07.141Z,11.52
2023-04-02T18:55:33.638Z,11.53
2023-04-02T18:58:00.002Z,11.78
2023-04-02T19:00:26.357Z,11.81
2023-04-02T19:02:52.802Z,11.79
2023-04-02T19:05:19.260Z,11.78
2023-04-02T19:07:45.773Z,11.83
2023-04-02T19:10:12.150Z,11.88
2023-04-02T19:12:38.527Z,11.61
2023-04-02T19:15:04.862Z,11.21
2023-04-02T19:17:31.305Z,11.05
2023-04-02T19:19:57.653Z,10.96
2023-04-02T19:22:24.035Z,10.80
2023-04-02T19:24:50.439Z,10.66
2023-04-02T19:27:16.811Z,10.58
2023-04-02T19:29:43.162Z,10.46
2023-04-02T19:32:09.500Z,10.39
2023-04-02T19:34:35.837Z,10.41
2023-04-02T19:37:02.222Z,10.44
2023-04-02T19:39:28.751Z,10.45
2023-04-02T19:41:55.130Z,10.36
2023-04-02T19:44:21.553Z,10.40
2023-04-02T19:46:47.931Z,10.45
2023-04-02T19:49:14.340Z,10.50
2023-04-02T19:51:40.736Z,10.52
2023-04-02T19:54:07.083Z,10.48
2023-04-02T19:56:33.527Z,10.54
2023-04-02T19:59:02.431Z,10.69
2023-04-02T20:01:34.357Z,10.68
2023-04-02T20:04:00.815Z,10.71
2023-04-02T20:06:27.280Z,10.76
2023-04-02T20:08:53.673Z,10.83
2023-04-02T20:11:20.060Z,10.91
2023-04-02T20:13:46.457Z,11.03
2023-04-02T20:16:12.875Z,11.08
2023-04-02T20:18:39.298Z,11.07
2023-04-02T20:21:05.669Z,10.95
2023-04-02T20:23:32.015Z,10.93
2023-04-02T20:25:58.359Z,11.07
2023-04-02T20:28:24.718Z,11.26
2023-04-02T20:30:51.201Z,11.32
2023-04-02T20:33:17.808Z,11.33
2023-04-02T20:35:44.370Z,11.31
2023-04-02T20:38:10.765Z,11.28
2023-04-02T20:40:37.395Z,11.19
2023-04-02T20:43:04.085Z,11.24
2023-04-02T20:45:30.431Z,11.25
2023-04-02T20:47:56.884Z,11.23
2023-04-02T20:50:23.249Z,11.26
2023-04-02T20:52:49.608Z,11.40
2023-04-02T20:55:15.956Z,11.34
2023-04-02T20:57:42.302Z,11.29
2023-04-02T21:00:08.684Z,11.35
2023-04-02T21:02:35.071Z,11.42
2023-04-02T21:05:01.476Z,11.39
2023-04-02T21:07:27.874Z,11.28
2023-04-02T21:09:54.214Z,11.39
2023-04-02T21:12:20.594Z,11.42
2023-04-02T21:14:46.955Z,11.33
2023-04-02T21:17:13.311Z,11.26
2023-04-02T21:19:39.698Z,11.22
2023-04-02T21:22:06.093Z,11.15
2023-04-02T21:24:32.447Z,11.00
2023-04-02T21:26:58.824Z,11.17
2023-04-02T21:29:25.218Z,11.39
2023-04-02T21:31:51.589Z,11.38
2023-04-02T21:34:18.031Z,11.15
2023-04-02T21:36:44.445Z,11.14
2023-04-02T21:39:10.840Z,11.33
2023-04-02T21:41:37.194Z,11.52
2023-04-02T21:44:03.594Z,11.52
2023-04-02T21:46:29.959Z,11.47
2023-04-02T21:48:56.387Z,11.56
2023-04-02T21:51:22.802Z,11.39
2023-04-02T21:53:49.155Z,11.33
2023-04-02T21:56:15.496Z,11.51
2023-04-02T21:58:41.851Z,11.67
2023-04-02T22:01:14.013Z,11.72
2023-04-02T22:03:46.845Z,11.67
2023-04-02T22:06:13.305Z,11.60
2023-04-02T22:08:39.701Z,11.59
2023-04-02T22:11:06.062Z,11.60
2023-04-02T22:13:32.399Z,11.61
2023-04-02T22:15:58.739Z,11.54
2023-04-02T22:18:25.076Z,11.38
2023-04-02T22:20:51.470Z,11.45
2023-04-02T22:23:18.911Z,11.57
2023-04-02T22:25:45.947Z,11.68
2023-04-02T22:28:12.311Z,11.67
2023-04-02T22:30:39.012Z,11.56
2023-04-02T22:33:05.624Z,11.42
2023-04-02T22:35:32.031Z,11.22
2023-04-02T22:37:58.428Z,11.12
2023-04-02T22:40:24.773Z,11.14
2023-04-02T22:42:51.151Z,11.26
2023-04-02T22:45:17.530Z,11.45
2023-04-02T22:47:43.924Z,11.53
2023-04-02T22:50:10.324Z,11.49
2023-04-02T22:52:36.735Z,11.41
2023-04-02T22:55:03.106Z,11.28
2023-04-02T22:57:29.519Z,11.31
2023-04-02T22:59:55.893Z,11.27
2023-04-02T23:02:22.259Z,11.31
2023-04-02T23:04:48.684Z,11.27
2023-04-02T23:07:15.060Z,11.25
2023-04-02T23:09:41.409Z,11.16
2023-04-02T23:12:07.742Z,11.28
2023-04-02T23:14:34.125Z,11.38
2023-04-02T23:17:00.547Z,11.50
2023-04-02T23:19:26.938Z,11.58
2023-04-02T23:21:53.287Z,11.51
2023-04-02T23:24:19.641Z,11.46
2023-04-02T23:26:46.024Z,11.41
2023-04-02T23:29:12.412Z,11.15
2023-04-02T23:31:38.801Z,11.19
2023-04-02T23:34:05.199Z,11.17
2023-04-02T23:36:31.581Z,11.19
2023-04-02T23:38:57.961Z,11.12
2023-04-02T23:41:24.340Z,11.10
2023-04-02T23:43:50.736Z,11.06
2023-04-02T23:46:17.095Z,11.18
2023-04-02T23:48:43.480Z,11.27
2023-04-02T23:51:09.830Z,11.32
2023-04-02T23:53:36.169Z,11.30
2023-04-02T23:58:28.922Z,11.23
